createdAt,value
2019-05-23T00:00:44.858Z,14.18
2019-05-23T00:03:16.124Z,14.11
2019-05-23T00:05:49.870Z,14.46
2019-05-23T00:08:24.206Z,14.60
2019-05-23T00:11:01.787Z,14.56
2019-05-23T00:13:57.668Z,14.31
2019-05-23T00:16:28.697Z,14.21
2019-05-23T00:18:58.711Z,14.06
2019-05-23T00:21:28.560Z,14.03
2019-05-23T00:24:00.148Z,13.92
2019-05-23T00:26:31.250Z,13.98
2019-05-23T00:29:09.944Z,13.96
2019-05-23T00:31:45.233Z,13.86
2019-05-23T00:34:15.265Z,13.75
2019-05-23T00:36:46.153Z,13.63
2019-05-23T00:39:16.832Z,13.55
2019-05-23T00:41:46.903Z,13.58
2019-05-23T00:44:16.843Z,13.79
2019-05-23T00:46:46.523Z,13.55
2019-05-23T00:49:16.919Z,13.60
2019-05-23T00:51:47.507Z,13.33
2019-05-23T00:54:18.188Z,13.20
2019-05-23T00:56:49.548Z,13.09
2019-05-23T00:59:27.306Z,13.28
2019-05-23T01:01:51.190Z,13.37
2019-05-23T01:04:21.972Z,13.69
2019-05-23T01:06:53.179Z,13.67
2019-05-23T01:09:25.275Z,13.68
2019-05-23T01:11:55.323Z,13.71
2019-05-23T01:14:25.792Z,13.61
2019-05-23T01:16:55.558Z,13.65
2019-05-23T01:19:25.650Z,13.56
2019-05-23T01:22:03.028Z,13.35
2019-05-23T01:24:35.226Z,13.01
2019-05-23T01:27:05.976Z,13.09
2019-05-23T01:29:49.475Z,13.08
2019-05-23T01:32:32.982Z,13.36
2019-05-23T01:35:03.038Z,13.24
2019-05-23T01:37:34.567Z,13.33
2019-05-23T01:40:05.379Z,13.46
2019-05-23T01:42:35.546Z,13.50
2019-05-23T01:45:06.157Z,13.34
2019-05-23T01:47:35.858Z,13.10
2019-05-23T01:50:06.711Z,13.23
2019-05-23T01:52:36.849Z,13.04
2019-05-23T01:55:07.983Z,13.21
2019-05-23T01:57:38.015Z,13.36
2019-05-23T02:00:11.349Z,13.42
2019-05-23T02:02:41.909Z,13.46
2019-05-23T02:05:11.591Z,13.45
2019-05-23T02:07:41.684Z,13.22
2019-05-23T02:10:13.157Z,13.00
2019-05-23T02:12:42.884Z,13.01
2019-05-23T02:15:12.673Z,13.15
2019-05-23T02:17:42.429Z,13.23
2019-05-23T02:20:14.199Z,13.08
2019-05-23T02:22:44.113Z,13.23
2019-05-23T02:25:16.761Z,13.30
2019-05-23T02:27:47.479Z,13.33
2019-05-23T02:30:33.882Z,13.22
2019-05-23T02:32:52.725Z,13.23
2019-05-23T02:35:22.743Z,13.00
2019-05-23T02:38:17.154Z,12.89
2019-05-23T02:40:56.190Z,12.81
2019-05-23T02:43:26.382Z,12.52
2019-05-23T02:46:00.017Z,12.40
2019-05-23T02:48:35.554Z,12.39
2019-05-23T02:51:08.623Z,12.68
2019-05-23T02:53:38.868Z,12.84
2019-05-23T02:56:11.620Z,13.09
2019-05-23T02:59:31.637Z,13.08
2019-05-23T03:02:47.946Z,13.02
2019-05-23T03:05:19.355Z,13.07
2019-05-23T03:07:50.385Z,13.11
2019-05-23T03:10:22.887Z,13.08
2019-05-23T03:12:52.656Z,12.89
2019-05-23T03:15:24.741Z,12.68
2019-05-23T03:17:56.714Z,12.43
2019-05-23T03:20:29.341Z,12.38
2019-05-23T03:23:06.026Z,12.40
2019-05-23T03:26:20.832Z,12.40
2019-05-23T03:28:50.250Z,12.11
2019-05-23T03:31:32.125Z,12.25
2019-05-23T03:34:01.032Z,12.13
2019-05-23T03:36:30.651Z,12.23
2019-05-23T03:39:00.121Z,12.13
2019-05-23T03:41:30.262Z,12.41
2019-05-23T03:44:01.484Z,12.57
2019-05-23T03:46:32.261Z,12.43
2019-05-23T03:49:02.033Z,12.45
2019-05-23T03:51:31.731Z,12.68
2019-05-23T03:54:02.280Z,12.68
2019-05-23T03:56:31.644Z,12.78
2019-05-23T03:59:01.859Z,12.73
2019-05-23T04:01:47.091Z,12.52
2019-05-23T04:04:04.999Z,12.47
2019-05-23T04:06:35.947Z,12.67
2019-05-23T04:09:07.932Z,12.84
2019-05-23T04:11:37.559Z,12.93
2019-05-23T04:14:07.663Z,12.94
2019-05-23T04:16:37.382Z,12.86
2019-05-23T04:19:06.902Z,12.87
2019-05-23T04:21:36.397Z,12.63
2019-05-23T04:24:06.280Z,12.27
2019-05-23T04:26:35.837Z,12.09
2019-05-23T04:29:05.301Z,12.04
2019-05-23T04:31:35.059Z,12.35
2019-05-23T04:34:04.581Z,12.33
2019-05-23T04:36:34.041Z,12.48
2019-05-23T04:39:05.042Z,12.48
2019-05-23T04:41:34.591Z,12.39
2019-05-23T04:44:06.182Z,12.50
2019-05-23T04:46:36.050Z,12.72
2019-05-23T04:49:06.582Z,12.56
2019-05-23T04:51:36.041Z,12.51
2019-05-23T04:54:06.373Z,12.52
2019-05-23T04:56:35.799Z,12.53
2019-05-23T04:59:05.762Z,12.16
2019-05-23T05:01:35.550Z,12.26
2019-05-23T05:04:06.401Z,12.21
2019-05-23T05:06:36.104Z,12.37
2019-05-23T05:09:08.621Z,12.76
2019-05-23T05:11:38.679Z,12.89
2019-05-23T05:14:08.424Z,13.02
2019-05-23T05:16:38.075Z,12.66
2019-05-23T05:19:07.824Z,12.52
2019-05-23T05:21:38.296Z,12.68
2019-05-23T05:24:07.675Z,12.76
2019-05-23T05:26:37.221Z,12.67
2019-05-23T05:29:07.076Z,12.57
2019-05-23T05:31:36.543Z,12.56
2019-05-23T05:34:06.303Z,12.71
2019-05-23T05:36:35.795Z,13.01
2019-05-23T05:39:07.904Z,12.88
2019-05-23T05:41:37.685Z,13.21
2019-05-23T05:44:07.155Z,13.50
2019-05-23T05:46:36.780Z,14.00
2019-05-23T05:49:07.025Z,13.85
2019-05-23T05:51:36.977Z,13.59
2019-05-23T05:54:07.509Z,13.57
2019-05-23T05:56:36.961Z,13.43
2019-05-23T05:59:06.446Z,13.50
2019-05-23T06:01:36.520Z,13.76
2019-05-23T06:04:07.119Z,13.73
2019-05-23T06:06:42.187Z,13.68
2019-05-23T06:09:29.498Z,13.67
2019-05-23T06:11:58.904Z,13.89
2019-05-23T06:14:28.321Z,13.86
2019-05-23T06:16:58.391Z,13.80
2019-05-23T06:19:27.980Z,14.06
2019-05-23T06:21:57.360Z,14.14
2019-05-23T06:24:41.656Z,14.79
2019-05-23T06:26:58.796Z,14.59
2019-05-23T06:29:28.473Z,14.49
2019-05-23T06:31:58.326Z,14.70
2019-05-23T06:34:27.852Z,14.79
2019-05-23T06:36:57.261Z,14.52
2019-05-23T06:39:26.864Z,14.66
2019-05-23T06:41:57.081Z,14.82
2019-05-23T06:44:26.576Z,14.97
2019-05-23T06:46:56.299Z,14.73
2019-05-23T06:49:25.679Z,14.68
2019-05-23T06:51:55.353Z,14.73
2019-05-23T06:54:24.969Z,14.67
2019-05-23T06:56:54.423Z,14.62
2019-05-23T06:59:23.927Z,14.59
2019-05-23T07:01:53.402Z,14.62
2019-05-23T07:04:22.853Z,14.83
2019-05-23T07:06:52.415Z,15.17
2019-05-23T07:09:22.196Z,15.13
2019-05-23T07:11:55.770Z,15.04
2019-05-23T07:14:25.239Z,15.52
2019-05-23T07:16:54.734Z,15.69
2019-05-23T07:19:24.243Z,15.81
2019-05-23T07:21:53.818Z,15.85
2019-05-23T07:24:24.162Z,15.66
2019-05-23T07:26:53.547Z,15.54
2019-05-23T07:29:23.503Z,15.67
2019-05-23T07:31:53.300Z,15.84
2019-05-23T07:34:23.818Z,15.93
2019-05-23T07:36:54.407Z,15.87
2019-05-23T07:39:23.868Z,15.65
2019-05-23T07:41:53.624Z,15.57
2019-05-23T07:44:23.482Z,15.53
2019-05-23T07:46:53.114Z,15.54
2019-05-23T07:49:23.147Z,15.52
2019-05-23T07:51:52.621Z,15.53
2019-05-23T07:54:40.985Z,15.54
2019-05-23T07:57:12.956Z,15.67
2019-05-23T07:59:42.431Z,15.51
2019-05-23T08:02:25.498Z,15.55
2019-05-23T08:04:53.375Z,15.63
2019-05-23T08:07:23.680Z,15.69
2019-05-23T08:09:53.380Z,15.53
2019-05-23T08:12:23.045Z,15.68
2019-05-23T08:14:52.619Z,15.61
2019-05-23T08:17:22.392Z,15.60
2019-05-23T08:19:52.166Z,15.69
2019-05-23T08:22:21.718Z,15.93
2019-05-23T08:24:51.600Z,16.05
2019-05-23T08:27:21.348Z,16.06
2019-05-23T08:29:51.040Z,16.18
2019-05-23T08:32:20.524Z,16.22
2019-05-23T08:34:50.219Z,16.17
2019-05-23T08:37:20.058Z,16.25
2019-05-23T08:39:49.900Z,16.37
2019-05-23T08:42:20.006Z,16.35
2019-05-23T08:44:49.552Z,16.40
2019-05-23T08:47:19.800Z,16.48
2019-05-23T08:49:49.655Z,16.57
2019-05-23T08:52:19.196Z,16.64
2019-05-23T08:54:51.287Z,16.90
2019-05-23T08:57:20.992Z,16.87
2019-05-23T08:59:51.099Z,16.96
2019-05-23T09:02:20.545Z,17.01
2019-05-23T09:05:03.739Z,17.12
2019-05-23T09:07:21.517Z,17.22
2019-05-23T09:09:51.058Z,17.28
2019-05-23T09:12:20.791Z,17.32
2019-05-23T09:14:50.546Z,17.37
2019-05-23T09:17:20.237Z,17.48
2019-05-23T09:19:49.859Z,17.49
2019-05-23T09:22:19.700Z,17.59
2019-05-23T09:24:49.218Z,17.68
2019-05-23T09:27:18.723Z,17.78
2019-05-23T09:29:48.381Z,18.10
2019-05-23T09:32:18.059Z,17.96
2019-05-23T09:34:47.611Z,17.98
2019-05-23T09:37:18.872Z,18.04
2019-05-23T09:39:49.797Z,18.06
2019-05-23T09:42:19.429Z,18.06
2019-05-23T09:44:49.056Z,18.03
2019-05-23T09:47:18.564Z,18.01
2019-05-23T09:49:55.355Z,18.06
2019-05-23T09:52:20.335Z,18.16
2019-05-23T09:54:49.954Z,18.23
2019-05-23T09:57:19.666Z,18.28
2019-05-23T09:59:49.223Z,18.30
2019-05-23T10:02:18.866Z,18.39
2019-05-23T10:04:48.471Z,18.47
2019-05-23T10:07:18.003Z,18.55
2019-05-23T10:09:47.534Z,18.62
2019-05-23T10:12:17.123Z,18.75
2019-05-23T10:14:46.675Z,18.69
2019-05-23T10:17:16.205Z,18.87
2019-05-23T10:19:45.836Z,19.17
2019-05-23T10:22:15.747Z,19.23
2019-05-23T10:24:45.245Z,19.39
2019-05-23T10:27:14.841Z,19.57
2019-05-23T10:29:44.363Z,19.58
2019-05-23T10:32:13.995Z,19.68
2019-05-23T10:34:43.604Z,19.94
2019-05-23T10:37:16.345Z,20.06
2019-05-23T10:39:49.934Z,20.47
2019-05-23T10:42:20.042Z,20.46
2019-05-23T10:44:50.098Z,20.28
2019-05-23T10:47:21.894Z,20.03
2019-05-23T10:50:10.367Z,19.82
2019-05-23T10:52:40.267Z,19.77
2019-05-23T10:55:10.649Z,20.09
2019-05-23T10:57:40.424Z,19.94
2019-05-23T11:00:14.961Z,19.82
2019-05-23T11:02:46.009Z,19.73
2019-05-23T11:05:16.156Z,19.75
2019-05-23T11:07:45.998Z,19.76
2019-05-23T11:10:16.492Z,19.82
2019-05-23T11:23:34.011Z,20.01
2019-05-23T11:26:04.242Z,20.22
2019-05-23T11:28:35.736Z,20.09
2019-05-23T11:31:07.019Z,20.17
2019-05-23T11:33:36.793Z,20.12
2019-05-23T11:36:06.760Z,20.40
2019-05-23T11:38:36.525Z,21.03
2019-05-23T11:41:06.118Z,20.95
2019-05-23T11:43:35.828Z,21.27
2019-05-23T11:46:12.656Z,21.40
2019-05-23T11:48:42.256Z,21.49
2019-05-23T11:51:11.993Z,21.65
2019-05-23T11:53:45.452Z,21.61
2019-05-23T11:56:13.005Z,21.65
2019-05-23T11:58:42.553Z,21.90
2019-05-23T12:01:24.090Z,21.96
2019-05-23T12:03:59.475Z,22.01
2019-05-23T12:06:33.547Z,21.85
2019-05-23T12:09:03.083Z,21.86
2019-05-23T12:11:36.633Z,22.03
2019-05-23T12:14:04.865Z,22.31
2019-05-23T12:16:34.512Z,22.49
2019-05-23T12:19:04.378Z,22.56
2019-05-23T12:21:34.307Z,23.47
2019-05-23T12:24:03.846Z,23.54
2019-05-23T12:26:33.433Z,23.27
2019-05-23T12:29:03.183Z,23.70
2019-05-23T12:31:32.864Z,23.90
2019-05-23T12:34:02.484Z,24.06
2019-05-23T12:36:32.436Z,23.67
2019-05-23T12:39:02.395Z,23.50
2019-05-23T12:41:31.917Z,23.34
2019-05-23T12:44:01.417Z,23.83
2019-05-23T12:46:31.075Z,24.01
2019-05-23T12:49:09.473Z,24.48
2019-05-23T12:51:56.715Z,24.28
2019-05-23T12:54:26.669Z,24.58
2019-05-23T12:56:58.500Z,24.44
2019-05-23T12:59:28.230Z,24.58
2019-05-23T13:05:28.366Z,24.54
2019-05-23T13:08:00.643Z,26.08
2019-05-23T13:10:30.926Z,25.30
2019-05-23T13:13:00.464Z,24.72
2019-05-23T13:15:31.002Z,24.61
2019-05-23T13:18:00.596Z,24.55
2019-05-23T13:20:30.942Z,24.56
2019-05-23T13:23:00.685Z,24.37
2019-05-23T13:25:30.666Z,24.35
2019-05-23T13:28:00.298Z,24.27
2019-05-23T13:30:29.883Z,24.80
2019-05-23T13:33:03.376Z,24.82
2019-05-23T13:35:31.222Z,24.56
2019-05-23T13:38:00.813Z,24.27
2019-05-23T13:40:30.429Z,24.29
2019-05-23T13:43:00.072Z,24.46
2019-05-23T13:45:29.620Z,24.59
2019-05-23T13:47:59.324Z,24.65
2019-05-23T13:50:28.892Z,25.31
2019-05-23T13:52:58.604Z,24.70
2019-05-23T13:55:28.409Z,24.62
2019-05-23T13:57:58.188Z,24.50
2019-05-23T14:00:28.751Z,24.61
2019-05-23T14:02:58.791Z,24.74
2019-05-23T14:05:29.007Z,25.09
2019-05-23T14:08:11.519Z,26.05
2019-05-23T14:10:30.233Z,25.85
2019-05-23T14:13:00.132Z,25.60
2019-05-23T14:15:35.123Z,25.61
2019-05-23T14:18:04.907Z,25.91
2019-05-23T14:20:34.577Z,26.16
2019-05-23T14:23:11.653Z,25.78
2019-05-23T14:25:41.539Z,26.09
2019-05-23T14:28:11.483Z,26.66
2019-05-23T14:30:58.977Z,26.31
2019-05-23T14:33:46.516Z,26.26
2019-05-23T14:36:41.649Z,26.40
2019-05-23T14:39:24.205Z,25.80
2019-05-23T14:41:59.815Z,26.14
2019-05-23T14:44:29.432Z,26.11
2019-05-23T14:47:17.206Z,25.97
2019-05-23T14:49:55.944Z,25.92
2019-05-23T14:52:31.030Z,25.86
2019-05-23T14:55:03.511Z,25.84
2019-05-23T14:57:33.306Z,25.86
2019-05-23T15:00:03.083Z,25.85
2019-05-23T15:02:33.473Z,25.79
2019-05-23T15:05:04.480Z,25.73
2019-05-23T15:07:34.700Z,25.68
2019-05-23T15:10:05.515Z,25.78
2019-05-23T15:12:35.139Z,25.49
2019-05-23T15:15:06.389Z,26.19
2019-05-23T15:17:36.099Z,25.95
2019-05-23T15:20:06.512Z,26.28
2019-05-23T15:22:36.314Z,26.17
2019-05-23T15:25:06.390Z,25.70
2019-05-23T15:27:36.028Z,26.09
2019-05-23T15:30:06.627Z,26.15
2019-05-23T15:32:36.219Z,26.05
2019-05-23T15:35:05.933Z,25.90
2019-05-23T15:37:35.569Z,26.19
2019-05-23T15:40:05.794Z,25.92
2019-05-23T15:42:35.388Z,25.80
2019-05-23T15:45:05.387Z,25.91
2019-05-23T15:47:36.215Z,26.04
2019-05-23T15:50:11.386Z,26.11
2019-05-23T15:53:04.964Z,26.48
2019-05-23T15:55:42.836Z,26.70
2019-05-23T15:58:30.757Z,26.78
2019-05-23T16:01:15.503Z,26.79
2019-05-23T16:03:47.804Z,26.87
2019-05-23T16:06:19.345Z,27.32
2019-05-23T16:08:49.298Z,27.47
2019-05-23T16:11:18.905Z,27.61
2019-05-23T16:13:48.486Z,27.18
2019-05-23T16:16:18.023Z,27.25
2019-05-23T16:18:48.370Z,27.07
2019-05-23T16:21:18.756Z,27.13
2019-05-23T16:23:48.297Z,27.84
2019-05-23T16:26:18.366Z,27.36
2019-05-23T16:28:47.945Z,27.25
2019-05-23T16:31:17.565Z,27.06
2019-05-23T16:33:47.148Z,27.04
2019-05-23T16:36:16.930Z,27.25
2019-05-23T16:38:46.445Z,26.77
2019-05-23T16:41:16.068Z,26.50
2019-05-23T16:43:45.617Z,26.46
2019-05-23T16:46:15.302Z,26.50
2019-05-23T16:48:44.906Z,26.81
2019-05-23T16:51:14.622Z,26.91
2019-05-23T16:53:44.804Z,26.73
2019-05-23T16:56:22.551Z,26.62
2019-05-23T16:59:13.858Z,26.60
2019-05-23T17:02:17.848Z,26.55
2019-05-23T17:05:09.837Z,26.52
2019-05-23T17:07:47.906Z,26.51
2019-05-23T17:10:22.286Z,26.54
2019-05-23T17:13:02.947Z,26.77
2019-05-23T17:15:43.351Z,26.59
2019-05-23T17:18:44.483Z,26.81
2019-05-23T17:21:39.343Z,26.78
2019-05-23T17:24:14.270Z,26.72
2019-05-23T17:26:51.694Z,26.57
2019-05-23T17:29:38.907Z,26.42
2019-05-23T17:32:10.855Z,26.10
2019-05-23T17:34:40.527Z,26.00
2019-05-23T17:37:12.194Z,25.98
2019-05-23T17:39:43.767Z,25.77
2019-05-23T17:42:13.477Z,25.68
2019-05-23T17:44:43.076Z,25.67
2019-05-23T17:47:12.795Z,25.54
2019-05-23T17:49:42.387Z,25.51
2019-05-23T17:52:12.695Z,25.39
2019-05-23T17:54:42.378Z,25.30
2019-05-23T17:57:11.971Z,25.29
2019-05-23T17:59:41.895Z,25.24
2019-05-23T18:02:12.859Z,25.10
2019-05-23T18:04:42.366Z,25.06
2019-05-23T18:07:12.824Z,25.02
2019-05-23T18:09:42.323Z,24.97
2019-05-23T18:12:12.701Z,24.94
2019-05-23T18:14:43.559Z,24.89
2019-05-23T18:17:13.232Z,24.78
2019-05-23T18:19:43.173Z,24.61
2019-05-23T18:22:14.050Z,24.50
2019-05-23T18:24:43.581Z,24.44
2019-05-23T18:27:13.783Z,24.37
2019-05-23T18:29:43.736Z,24.26
2019-05-23T18:32:18.592Z,24.16
2019-05-23T18:34:48.449Z,24.05
2019-05-23T18:37:18.544Z,23.95
2019-05-23T18:39:48.392Z,23.86
2019-05-23T18:42:18.616Z,23.78
2019-05-23T18:44:48.122Z,23.68
2019-05-23T18:47:29.278Z,23.58
2019-05-23T18:49:59.073Z,23.47
2019-05-23T18:52:28.647Z,23.36
2019-05-23T18:54:58.340Z,23.23
2019-05-23T18:57:28.325Z,23.13
2019-05-23T18:59:57.981Z,23.00
2019-05-23T19:02:27.862Z,22.91
2019-05-23T19:04:58.032Z,22.82
2019-05-23T19:07:28.003Z,22.73
2019-05-23T19:09:57.664Z,22.61
2019-05-23T19:12:27.234Z,22.52
2019-05-23T19:14:56.965Z,22.43
2019-05-23T19:17:26.595Z,22.35
2019-05-23T19:19:58.349Z,22.27
2019-05-23T19:22:28.429Z,22.19
2019-05-23T19:24:58.297Z,22.11
2019-05-23T19:27:27.824Z,22.00
2019-05-23T19:29:57.808Z,21.93
2019-05-23T19:32:27.410Z,21.84
2019-05-23T19:34:57.075Z,21.76
2019-05-23T19:37:27.261Z,21.65
2019-05-23T19:39:56.770Z,21.59
2019-05-23T19:42:26.285Z,21.50
2019-05-23T19:44:55.849Z,21.40
2019-05-23T19:47:27.249Z,21.33
2019-05-23T19:49:56.827Z,21.30
2019-05-23T19:52:26.761Z,21.22
2019-05-23T19:54:56.756Z,21.15
2019-05-23T19:57:26.623Z,21.07
2019-05-23T19:59:56.153Z,21.02
2019-05-23T20:02:44.717Z,20.95
2019-05-23T20:05:22.697Z,20.88
2019-05-23T20:07:52.373Z,20.81
2019-05-23T20:10:23.931Z,20.72
2019-05-23T20:13:12.854Z,20.65
2019-05-23T20:15:45.589Z,20.57
2019-05-23T20:18:14.315Z,20.50
2019-05-23T20:20:44.010Z,20.45
2019-05-23T20:23:16.028Z,20.37
2019-05-23T20:25:45.233Z,20.29
2019-05-23T20:28:14.881Z,20.24
2019-05-23T20:31:04.657Z,20.21
2019-05-23T20:33:34.415Z,20.14
2019-05-23T20:36:06.870Z,20.07
2019-05-23T20:38:36.465Z,20.03
2019-05-23T20:41:06.192Z,19.96
2019-05-23T20:43:35.913Z,19.91
2019-05-23T20:46:05.617Z,19.89
2019-05-23T20:48:36.355Z,19.83
2019-05-23T20:51:06.072Z,19.76
2019-05-23T20:53:35.853Z,19.68
2019-05-23T20:56:05.732Z,19.62
2019-05-23T20:58:35.531Z,19.59
2019-05-23T21:01:18.913Z,19.58
2019-05-23T21:03:49.563Z,19.50
2019-05-23T21:06:19.184Z,19.51
2019-05-23T21:08:48.825Z,19.48
2019-05-23T21:11:18.537Z,19.43
2019-05-23T21:13:48.260Z,19.37
2019-05-23T21:16:17.894Z,19.38
2019-05-23T21:18:49.977Z,19.33
2019-05-23T21:21:18.846Z,19.29
2019-05-23T21:23:48.674Z,19.22
2019-05-23T21:26:18.304Z,19.03
2019-05-23T21:28:47.869Z,18.93
2019-05-23T21:31:21.996Z,18.83
2019-05-23T21:33:51.717Z,18.81
2019-05-23T21:36:21.521Z,18.71
2019-05-23T21:38:51.148Z,18.64
2019-05-23T21:41:20.770Z,18.61
2019-05-23T21:43:52.330Z,18.51
2019-05-23T21:46:21.997Z,18.48
2019-05-23T21:48:51.627Z,18.46
2019-05-23T21:51:21.517Z,18.32
2019-05-23T21:53:51.149Z,18.19
2019-05-23T21:56:20.772Z,18.10
2019-05-23T21:58:50.392Z,18.01
2019-05-23T22:01:41.442Z,18.02
2019-05-23T22:04:45.271Z,18.12
2019-05-23T22:07:15.213Z,18.12
2019-05-23T22:09:45.310Z,18.06
2019-05-23T22:12:15.232Z,18.15
2019-05-23T22:14:45.408Z,18.16
2019-05-23T22:17:15.080Z,18.17
2019-05-23T22:19:44.713Z,18.13
2019-05-23T22:22:14.334Z,18.14
2019-05-23T22:24:43.967Z,18.14
2019-05-23T22:27:14.950Z,18.09
2019-05-23T22:29:44.641Z,18.09
2019-05-23T22:32:16.006Z,18.04
2019-05-23T22:34:59.444Z,17.95
2019-05-23T22:37:30.255Z,17.85
2019-05-23T22:39:59.880Z,17.85
2019-05-23T22:42:30.148Z,17.81
2019-05-23T22:44:59.851Z,17.75
2019-05-23T22:47:29.839Z,17.71
2019-05-23T22:49:59.446Z,17.65
2019-05-23T22:52:29.165Z,17.63
2019-05-23T22:54:58.759Z,17.59
2019-05-23T22:57:28.367Z,17.53
2019-05-23T22:59:58.031Z,17.49
2019-05-23T23:02:27.797Z,17.44
2019-05-23T23:04:57.641Z,17.44
2019-05-23T23:07:27.318Z,17.47
2019-05-23T23:09:56.836Z,17.44
2019-05-23T23:12:26.531Z,17.40
2019-05-23T23:14:56.146Z,17.32
2019-05-23T23:17:25.712Z,17.29
2019-05-23T23:19:55.398Z,17.21
2019-05-23T23:22:25.030Z,17.23
2019-05-23T23:24:54.660Z,17.17
2019-05-23T23:27:24.262Z,17.16
2019-05-23T23:29:53.794Z,17.13
2019-05-23T23:32:23.448Z,17.12
2019-05-23T23:34:53.291Z,17.05
2019-05-23T23:37:23.076Z,17.08
2019-05-23T23:39:52.603Z,17.03
2019-05-23T23:42:22.365Z,16.99
2019-05-23T23:44:51.276Z,16.97
2019-05-23T23:47:38.555Z,17.02
2019-05-23T23:50:26.097Z,16.95
2019-05-23T23:53:13.515Z,16.96
2019-05-23T23:56:00.955Z,16.85
2019-05-23T23:58:30.018Z,16.89
